createdAt,value
2023-02-08T00:00:30.976Z,-0.86
2023-02-08T00:05:57.114Z,-0.79
2023-02-08T00:11:04.586Z,-0.70
2023-02-08T00:16:12.636Z,-0.67
2023-02-08T00:21:20.422Z,-0.69
2023-02-08T00:26:26.111Z,-0.73
2023-02-08T00:31:32.069Z,-0.77
2023-02-08T00:36:38.211Z,-0.77
2023-02-08T00:41:44.039Z,-0.74
2023-02-08T00:46:49.907Z,-0.68
2023-02-08T00:51:57.344Z,-0.66
2023-02-08T00:57:03.603Z,-0.69
2023-02-08T01:02:12.250Z,-0.72
2023-02-08T01:07:18.377Z,-0.75
2023-02-08T01:12:24.975Z,-0.74
2023-02-08T01:17:30.824Z,-0.66
2023-02-08T01:22:36.915Z,-0.64
2023-02-08T01:27:43.145Z,-0.66
2023-02-08T01:32:49.200Z,-0.72
2023-02-08T01:37:55.578Z,-0.78
2023-02-08T01:43:01.764Z,-0.84
2023-02-08T01:48:13.295Z,-0.88
2023-02-08T01:53:18.431Z,-0.88
2023-02-08T01:58:28.117Z,-0.86
2023-02-08T02:03:34.562Z,-0.83
2023-02-08T02:08:45.009Z,-0.87
2023-02-08T02:13:52.757Z,-0.91
2023-02-08T02:18:58.748Z,-0.97
2023-02-08T02:24:30.093Z,-1.00
2023-02-08T02:30:12.751Z,-0.97
2023-02-08T02:35:26.304Z,-0.90
2023-02-08T02:40:44.536Z,-0.88
2023-02-08T02:46:03.384Z,-0.93
2023-02-08T02:51:14.583Z,-0.99
2023-02-08T02:56:22.202Z,-0.97
2023-02-08T03:01:30.163Z,-0.86
2023-02-08T03:06:44.771Z,-0.82
2023-02-08T03:11:57.978Z,-0.86
2023-02-08T03:17:18.663Z,-0.89
2023-02-08T03:22:30.935Z,-0.94
2023-02-08T03:27:40.116Z,-1.00
2023-02-08T03:32:52.572Z,-1.03
2023-02-08T03:38:05.019Z,-0.96
2023-02-08T03:43:16.422Z,-0.88
2023-02-08T03:48:25.455Z,-0.90
2023-02-08T03:53:38.413Z,-0.91
2023-02-08T03:58:52.116Z,-1.00
2023-02-08T04:04:00.672Z,-1.00
2023-02-08T04:09:07.292Z,-0.99
2023-02-08T04:14:13.436Z,-0.97
2023-02-08T04:19:19.212Z,-0.97
2023-02-08T04:24:25.180Z,-0.99
2023-02-08T04:29:31.413Z,-1.08
2023-02-08T04:34:37.380Z,-1.08
2023-02-08T04:39:43.506Z,-1.00
2023-02-08T04:44:49.585Z,-0.95
2023-02-08T04:49:55.665Z,-0.94
2023-02-08T04:55:01.626Z,-0.93
2023-02-08T05:00:10.001Z,-0.99
2023-02-08T05:05:16.269Z,-1.09
2023-02-08T05:10:22.890Z,-1.13
2023-02-08T05:15:28.755Z,-1.07
2023-02-08T05:20:35.516Z,-0.99
2023-02-08T05:25:42.065Z,-1.00
2023-02-08T05:30:49.315Z,-0.99
2023-02-08T05:35:55.892Z,-0.98
2023-02-08T05:41:02.052Z,-0.99
2023-02-08T05:46:09.676Z,-0.92
2023-02-08T05:51:15.826Z,-0.87
2023-02-08T05:56:21.707Z,-0.88
2023-02-08T06:01:27.774Z,-0.88
2023-02-08T06:06:33.729Z,-0.91
2023-02-08T06:11:39.625Z,-0.89
2023-02-08T06:16:46.272Z,-0.80
2023-02-08T06:21:52.241Z,-0.75
2023-02-08T06:26:59.388Z,-0.75
2023-02-08T06:32:05.820Z,-0.77
2023-02-08T06:37:13.371Z,-0.80
2023-02-08T06:42:26.575Z,-0.80
2023-02-08T06:47:34.600Z,-0.75
2023-02-08T06:52:53.862Z,-0.66
2023-02-08T06:57:59.913Z,-0.59
2023-02-08T07:03:13.356Z,-0.52
2023-02-08T07:08:20.101Z,-0.49
2023-02-08T07:16:47.434Z,-0.45
2023-02-08T07:21:53.560Z,-0.46
2023-02-08T07:26:59.452Z,-0.38
2023-02-08T07:32:08.076Z,-0.30
2023-02-08T07:37:14.589Z,-0.29
2023-02-08T07:42:21.923Z,-0.27
2023-02-08T07:47:32.974Z,-0.27
2023-02-08T07:52:39.517Z,-0.22
2023-02-08T07:57:47.510Z,-0.16
2023-02-08T08:02:54.064Z,-0.06
2023-02-08T08:08:00.411Z,0.04
2023-02-08T08:13:06.652Z,0.07
2023-02-08T08:18:12.538Z,0.12
2023-02-08T08:23:19.718Z,0.22
2023-02-08T08:28:26.570Z,0.29
2023-02-08T08:33:32.592Z,0.33
2023-02-08T08:38:41.895Z,0.39
2023-02-08T08:43:48.035Z,0.42
2023-02-08T08:48:54.265Z,0.49
2023-02-08T08:54:00.034Z,0.61
2023-02-08T08:59:06.012Z,0.67
2023-02-08T09:04:12.160Z,0.72
2023-02-08T09:09:18.776Z,0.78
2023-02-08T09:14:24.676Z,0.85
2023-02-08T09:19:31.407Z,0.94
2023-02-08T09:24:37.446Z,1.03
2023-02-08T09:29:43.615Z,1.16
2023-02-08T09:34:49.590Z,1.20
2023-02-08T09:39:57.333Z,1.23
2023-02-08T09:45:19.693Z,1.28
2023-02-08T09:50:32.586Z,1.36
2023-02-08T09:55:41.499Z,1.49
2023-02-08T10:00:50.821Z,1.55
2023-02-08T10:05:57.818Z,1.58
2023-02-08T10:11:35.424Z,1.58
2023-02-08T10:17:01.074Z,1.63
2023-02-08T10:22:23.461Z,1.68
2023-02-08T10:27:40.277Z,1.81
2023-02-08T10:32:55.496Z,1.89
2023-02-08T10:38:06.793Z,1.96
2023-02-08T10:43:33.701Z,2.02
2023-02-08T10:48:57.380Z,2.02
2023-02-08T10:54:05.837Z,1.90
2023-02-08T10:59:24.599Z,1.80
2023-02-08T11:04:32.667Z,1.72
2023-02-08T11:09:41.065Z,1.59
2023-02-08T11:15:00.128Z,1.45
2023-02-08T11:20:27.124Z,1.34
2023-02-08T11:25:38.939Z,1.29
2023-02-08T11:31:12.627Z,1.30
2023-02-08T11:36:23.376Z,1.31
2023-02-08T11:41:51.163Z,1.36
2023-02-08T11:47:10.315Z,1.44
2023-02-08T11:52:25.862Z,1.52
2023-02-08T11:57:32.925Z,1.59
2023-02-08T12:02:41.344Z,1.69
2023-02-08T12:08:00.106Z,1.75
2023-02-08T12:13:27.624Z,1.85
2023-02-08T12:18:56.748Z,1.97
2023-02-08T12:24:09.073Z,2.08
2023-02-08T12:29:47.334Z,2.11
2023-02-08T12:35:24.151Z,2.11
2023-02-08T12:40:49.888Z,2.12
2023-02-08T12:46:17.153Z,2.10
2023-02-08T12:51:31.595Z,2.22
2023-02-08T12:56:46.550Z,2.40
2023-02-08T13:02:01.876Z,2.38
2023-02-08T13:07:14.660Z,2.33
2023-02-08T13:12:27.286Z,2.20
2023-02-08T13:17:45.082Z,2.24
2023-02-08T13:22:53.170Z,2.27
2023-02-08T13:28:03.417Z,2.18
2023-02-08T13:33:16.855Z,2.20
2023-02-08T13:38:28.671Z,2.14
2023-02-08T13:43:40.756Z,2.00
2023-02-08T13:48:49.600Z,2.14
2023-02-08T13:54:13.112Z,2.68
2023-02-08T13:59:35.245Z,2.75
2023-02-08T14:04:42.862Z,2.66
2023-02-08T14:10:08.584Z,2.80
2023-02-08T14:15:35.324Z,2.82
2023-02-08T14:20:54.899Z,2.44
2023-02-08T14:26:08.423Z,2.20
2023-02-08T14:31:17.724Z,2.07
2023-02-08T14:36:31.411Z,1.95
2023-02-08T14:41:54.861Z,1.84
2023-02-08T14:47:00.999Z,1.73
2023-02-08T14:52:14.809Z,1.60
2023-02-08T14:57:26.009Z,1.50
2023-02-08T15:02:34.338Z,1.36
2023-02-08T15:07:47.360Z,1.14
2023-02-08T15:12:57.923Z,0.88
2023-02-08T15:18:06.179Z,0.64
2023-02-08T15:23:22.202Z,0.30
2023-02-08T15:28:30.089Z,-0.10
2023-02-08T15:33:38.426Z,-0.49
2023-02-08T15:38:45.071Z,-0.86
2023-02-08T15:43:51.040Z,-1.16
2023-02-08T15:48:59.221Z,-1.49
2023-02-08T15:54:08.693Z,-1.79
2023-02-08T15:59:25.037Z,-2.02
2023-02-08T16:04:30.989Z,-2.24
2023-02-08T16:09:37.451Z,-2.42
2023-02-08T16:14:52.801Z,-2.58
2023-02-08T16:19:59.564Z,-2.74
2023-02-08T16:25:36.098Z,-2.88
2023-02-08T16:30:45.126Z,-3.03
2023-02-08T16:35:52.256Z,-3.13
2023-02-08T16:41:12.388Z,-3.23
2023-02-08T16:46:28.506Z,-3.34
2023-02-08T16:51:35.735Z,-3.41
2023-02-08T16:56:42.566Z,-3.40
2023-02-08T17:01:50.071Z,-3.31
2023-02-08T17:06:57.564Z,-3.33
2023-02-08T17:12:21.489Z,-3.43
2023-02-08T17:17:30.040Z,-3.52
2023-02-08T17:22:36.308Z,-3.62
2023-02-08T17:27:43.508Z,-3.72
2023-02-08T17:32:50.444Z,-3.85
2023-02-08T17:37:57.750Z,-3.99
2023-02-08T17:43:07.108Z,-4.12
2023-02-08T17:48:13.909Z,-4.23
2023-02-08T17:53:20.745Z,-4.35
2023-02-08T17:58:27.541Z,-4.50
2023-02-08T18:03:34.251Z,-4.60
2023-02-08T18:08:41.004Z,-4.59
2023-02-08T18:13:49.195Z,-4.54
2023-02-08T18:19:02.208Z,-4.57
2023-02-08T18:24:10.231Z,-4.57
2023-02-08T18:29:16.354Z,-4.64
2023-02-08T18:34:22.364Z,-4.73
2023-02-08T18:39:30.000Z,-4.86
2023-02-08T18:44:38.651Z,-4.96
2023-02-08T18:49:45.261Z,-5.04
2023-02-08T18:54:52.169Z,-5.12
2023-02-08T18:59:58.417Z,-5.20
2023-02-08T19:05:05.206Z,-5.24
2023-02-08T19:10:11.478Z,-5.23
2023-02-08T19:15:17.606Z,-5.12
2023-02-08T19:20:24.284Z,-5.06
2023-02-08T19:25:30.589Z,-5.06
2023-02-08T19:30:37.482Z,-5.14
2023-02-08T19:35:43.792Z,-5.28
2023-02-08T19:40:55.512Z,-5.43
2023-02-08T19:46:02.519Z,-5.62
2023-02-08T19:51:09.814Z,-5.79
2023-02-08T19:56:19.039Z,-5.94
2023-02-08T20:01:26.323Z,-6.05
2023-02-08T20:06:36.210Z,-6.04
2023-02-08T20:11:56.349Z,-6.01
2023-02-08T20:17:04.580Z,-5.96
2023-02-08T20:22:10.838Z,-5.81
2023-02-08T20:27:18.356Z,-5.74
2023-02-08T20:32:24.410Z,-5.77
2023-02-08T20:37:30.766Z,-5.81
2023-02-08T20:42:38.106Z,-5.82
2023-02-08T20:47:46.958Z,-5.88
2023-02-08T20:52:53.898Z,-5.95
2023-02-08T20:58:01.490Z,-6.09
2023-02-08T21:03:08.009Z,-6.15
2023-02-08T21:08:14.428Z,-6.23
2023-02-08T21:13:22.823Z,-6.29
2023-02-08T21:18:29.677Z,-6.28
2023-02-08T21:23:36.649Z,-6.28
2023-02-08T21:28:43.825Z,-6.27
2023-02-08T21:33:50.982Z,-6.18
2023-02-08T21:38:59.490Z,-6.10
2023-02-08T21:44:08.171Z,-6.02
2023-02-08T21:49:33.369Z,-6.04
2023-02-08T21:54:42.676Z,-6.13
2023-02-08T21:59:51.476Z,-6.23
2023-02-08T22:04:59.657Z,-6.42
2023-02-08T22:10:10.192Z,-6.59
2023-02-08T22:15:19.203Z,-6.65
2023-02-08T22:20:26.745Z,-6.73
2023-02-08T22:27:46.861Z,-6.75
2023-02-08T22:32:52.666Z,-6.66
2023-02-08T22:37:58.334Z,-6.58
2023-02-08T22:43:03.850Z,-6.71
2023-02-08T22:48:10.105Z,-6.84
2023-02-08T22:53:15.699Z,-6.95
2023-02-08T22:58:21.927Z,-7.06
2023-02-08T23:03:27.673Z,-7.05
2023-02-08T23:08:33.763Z,-7.03
2023-02-08T23:13:39.518Z,-6.97
2023-02-08T23:18:45.282Z,-6.84
2023-02-08T23:23:50.937Z,-6.69
2023-02-08T23:28:56.709Z,-6.62
2023-02-08T23:38:51.251Z,-6.77
2023-02-08T23:43:57.795Z,-6.95
2023-02-08T23:49:04.156Z,-7.11
2023-02-08T23:54:11.415Z,-7.24
2023-02-08T23:59:17.932Z,-7.27
